sensor_id;sensor_type;location;lat;lon;timestamp;pressure;altitude;pressure_sealevel;temperature;humidity
63395;BME280;49531;-34.520;150.798;2023-03-24T00:00:22;100914.47;;;23.72;66.86
63395;BME280;49531;-34.520;150.798;2023-03-24T00:02:50;100926.69;;;23.89;66.72
63395;BME280;49531;-34.520;150.798;2023-03-24T00:05:20;100915.81;;;23.79;67.03
63395;BME280;49531;-34.520;150.798;2023-03-24T00:07:48;100938.38;;;24.00;67.23
63395;BME280;49531;-34.520;150.798;2023-03-24T00:10:18;100939.69;;;24.08;66.85
63395;BME280;49531;-34.520;150.798;2023-03-24T00:12:48;100932.84;;;24.15;66.49
63395;BME280;49531;-34.520;150.798;2023-03-24T00:15:17;100914.59;;;24.11;66.21
63395;BME280;49531;-34.520;150.798;2023-03-24T00:17:47;100926.56;;;24.25;66.36
63395;BME280;49531;-34.520;150.798;2023-03-24T00:20:17;100932.25;;;24.34;66.46
63395;BME280;49531;-34.520;150.798;2023-03-24T00:22:47;100892.72;;;24.16;65.55
63395;BME280;49531;-34.520;150.798;2023-03-24T00:25:19;100927.53;;;24.44;65.66
63395;BME280;49531;-34.520;150.798;2023-03-24T00:27:47;100928.59;;;24.48;65.39
63395;BME280;49531;-34.520;150.798;2023-03-24T00:30:15;100925.84;;;24.53;65.94
63395;BME280;49531;-34.520;150.798;2023-03-24T00:32:43;100927.19;;;24.56;65.44
63395;BME280;49531;-34.520;150.798;2023-03-24T00:35:13;100908.38;;;24.54;65.11
63395;BME280;49531;-34.520;150.798;2023-03-24T00:37:41;100917.06;;;24.62;65.33
63395;BME280;49531;-34.520;150.798;2023-03-24T00:40:13;100911.81;;;24.70;65.25
63395;BME280;49531;-34.520;150.798;2023-03-24T00:42:42;100921.63;;;24.76;65.54
63395;BME280;49531;-34.520;150.798;2023-03-24T00:45:13;100906.66;;;24.69;65.33
63395;BME280;49531;-34.520;150.798;2023-03-24T00:47:41;100921.38;;;24.73;65.28
63395;BME280;49531;-34.520;150.798;2023-03-24T00:50:15;100915.34;;;24.76;64.76
63395;BME280;49531;-34.520;150.798;2023-03-24T00:52:42;100911.78;;;24.75;65.27
63395;BME280;49531;-34.520;150.798;2023-03-24T00:55:14;100904.44;;;24.71;65.50
63395;BME280;49531;-34.520;150.798;2023-03-24T00:57:43;100887.06;;;24.56;64.82
63395;BME280;49531;-34.520;150.798;2023-03-24T01:00:21;100909.59;;;24.77;64.36
63395;BME280;49531;-34.520;150.798;2023-03-24T01:02:50;100910.91;;;24.80;64.48
63395;BME280;49531;-34.520;150.798;2023-03-24T01:05:21;100909.81;;;24.81;64.77
63395;BME280;49531;-34.520;150.798;2023-03-24T01:07:49;100895.16;;;24.72;64.45
63395;BME280;49531;-34.520;150.798;2023-03-24T01:10:20;100854.38;;;24.41;64.34
63395;BME280;49531;-34.520;150.798;2023-03-24T01:12:54;100906.78;;;24.82;63.94
63395;BME280;49531;-34.520;150.798;2023-03-24T01:15:24;100859.22;;;24.54;64.31
63395;BME280;49531;-34.520;150.798;2023-03-24T01:17:51;100895.06;;;24.82;63.73
63395;BME280;49531;-34.520;150.798;2023-03-24T01:20:20;100906.75;;;24.87;64.01
63395;BME280;49531;-34.520;150.798;2023-03-24T01:22:49;100854.25;;;24.62;64.08
63395;BME280;49531;-34.520;150.798;2023-03-24T01:25:19;100899.06;;;24.94;63.49
63395;BME280;49531;-34.520;150.798;2023-03-24T01:27:48;100900.72;;;24.90;63.83
63395;BME280;49531;-34.520;150.798;2023-03-24T01:30:18;100872.97;;;24.78;63.30
63395;BME280;49531;-34.520;150.798;2023-03-24T01:32:46;100907.25;;;25.00;63.57
63395;BME280;49531;-34.520;150.798;2023-03-24T01:35:14;100876.13;;;24.96;63.86
63395;BME280;49531;-34.520;150.798;2023-03-24T01:37:41;100873.88;;;25.03;64.04
63395;BME280;49531;-34.520;150.798;2023-03-24T01:40:15;100866.03;;;24.91;63.58
63395;BME280;49531;-34.520;150.798;2023-03-24T01:42:43;100888.81;;;25.15;63.63
63395;BME280;49531;-34.520;150.798;2023-03-24T01:48:00;100888.97;;;25.24;64.04
63395;BME280;49531;-34.520;150.798;2023-03-24T01:50:28;100885.38;;;25.29;63.22
63395;BME280;49531;-34.520;150.798;2023-03-24T01:52:55;100888.69;;;25.25;63.03
63395;BME280;49531;-34.520;150.798;2023-03-24T01:55:23;100888.69;;;25.25;62.69
63395;BME280;49531;-34.520;150.798;2023-03-24T01:57:54;100884.56;;;25.28;62.52
63395;BME280;49531;-34.520;150.798;2023-03-24T02:00:22;100884.50;;;25.33;62.53
63395;BME280;49531;-34.520;150.798;2023-03-24T02:02:54;100845.94;;;25.11;62.49
63395;BME280;49531;-34.520;150.798;2023-03-24T02:05:28;100877.09;;;25.39;62.12
63395;BME280;49531;-34.520;150.798;2023-03-24T02:08:07;100868.63;;;25.35;61.99
63395;BME280;49531;-34.520;150.798;2023-03-24T02:10:37;100868.00;;;25.43;62.11
63395;BME280;49531;-34.520;150.798;2023-03-24T02:13:05;100870.47;;;25.45;61.83
63395;BME280;49531;-34.520;150.798;2023-03-24T02:15:39;100816.56;;;25.21;62.46
63395;BME280;49531;-34.520;150.798;2023-03-24T02:18:26;100829.25;;;25.36;62.20
63395;BME280;49531;-34.520;150.798;2023-03-24T02:21:15;100838.16;;;25.47;61.89
63395;BME280;49531;-34.520;150.798;2023-03-24T02:24:24;100837.69;;;25.40;61.83
63395;BME280;49531;-34.520;150.798;2023-03-24T02:30:12;100863.00;;;25.50;61.79
63395;BME280;49531;-34.520;150.798;2023-03-24T02:33:18;100861.91;;;25.51;61.54
63395;BME280;49531;-34.520;150.798;2023-03-24T02:42:07;100830.81;;;25.42;61.51
63395;BME280;49531;-34.520;150.798;2023-03-24T02:44:50;100858.59;;;25.54;62.12
63395;BME280;49531;-34.520;150.798;2023-03-24T02:47:29;100857.19;;;25.57;62.36
63395;BME280;49531;-34.520;150.798;2023-03-24T02:50:15;100851.94;;;25.60;62.40
63395;BME280;49531;-34.520;150.798;2023-03-24T02:52:45;100854.19;;;25.58;62.56
63395;BME280;49531;-34.520;150.798;2023-03-24T02:55:26;100820.66;;;25.48;62.70
63395;BME280;49531;-34.520;150.798;2023-03-24T02:57:58;100833.56;;;25.66;62.46
63395;BME280;49531;-34.520;150.798;2023-03-24T03:00:34;100830.72;;;25.76;62.65
63395;BME280;49531;-34.520;150.798;2023-03-24T03:03:09;100783.34;;;25.57;62.67
63395;BME280;49531;-34.520;150.798;2023-03-24T03:05:46;100831.94;;;25.89;62.28
63395;BME280;49531;-34.520;150.798;2023-03-24T03:08:17;100766.69;;;25.53;62.11
63395;BME280;49531;-34.520;150.798;2023-03-24T03:10:48;100784.72;;;25.78;62.15
63395;BME280;49531;-34.520;150.798;2023-03-24T03:13:27;100800.88;;;25.99;62.17
63395;BME280;49531;-34.520;150.798;2023-03-24T03:16:03;100758.00;;;25.70;61.77
63395;BME280;49531;-34.520;150.798;2023-03-24T03:18:36;100797.44;;;26.07;61.83
63395;BME280;49531;-34.520;150.798;2023-03-24T03:21:10;100793.81;;;26.11;61.44
63395;BME280;49531;-34.520;150.798;2023-03-24T03:23:42;100800.94;;;26.12;61.56
63395;BME280;49531;-34.520;150.798;2023-03-24T03:26:15;100801.44;;;26.14;61.74
63395;BME280;49531;-34.520;150.798;2023-03-24T03:28:48;100737.63;;;25.81;61.47
63395;BME280;49531;-34.520;150.798;2023-03-24T03:31:24;100771.47;;;26.04;61.29
63395;BME280;49531;-34.520;150.798;2023-03-24T03:34:11;100786.78;;;26.24;61.19
63395;BME280;49531;-34.520;150.798;2023-03-24T03:36:47;100751.19;;;26.05;61.25
63395;BME280;49531;-34.520;150.798;2023-03-24T03:39:26;100734.03;;;26.00;61.08
63395;BME280;49531;-34.520;150.798;2023-03-24T03:41:55;100745.94;;;26.09;61.07
63395;BME280;49531;-34.520;150.798;2023-03-24T03:44:23;100766.81;;;26.23;60.88
63395;BME280;49531;-34.520;150.798;2023-03-24T03:46:51;100759.25;;;26.15;60.63
63395;BME280;49531;-34.520;150.798;2023-03-24T03:49:19;100695.47;;;25.82;60.88
63395;BME280;49531;-34.520;150.798;2023-03-24T03:51:46;100741.06;;;26.06;60.90
63395;BME280;49531;-34.520;150.798;2023-03-24T03:54:15;100771.69;;;26.27;60.83
63395;BME280;49531;-34.520;150.798;2023-03-24T03:56:43;100771.34;;;26.33;60.69
63395;BME280;49531;-34.520;150.798;2023-03-24T03:59:24;100742.09;;;26.10;60.69
63395;BME280;49531;-34.520;150.798;2023-03-24T04:01:51;100745.88;;;26.14;60.64
63395;BME280;49531;-34.520;150.798;2023-03-24T04:04:53;100790.84;;;26.45;60.31
63395;BME280;49531;-34.520;150.798;2023-03-24T04:10:39;100774.63;;;26.49;60.48
63395;BME280;49531;-34.520;150.798;2023-03-24T04:16:16;100773.00;;;26.48;60.58
63395;BME280;49531;-34.520;150.798;2023-03-24T04:18:57;100710.28;;;26.14;60.33
63395;BME280;49531;-34.520;150.798;2023-03-24T04:21:52;100777.88;;;26.51;60.62
63395;BME280;49531;-34.520;150.798;2023-03-24T04:24:37;100748.34;;;26.34;60.27
63395;BME280;49531;-34.520;150.798;2023-03-24T04:27:14;100712.00;;;26.10;60.38
63395;BME280;49531;-34.520;150.798;2023-03-24T04:32:52;100779.31;;;26.48;60.44
63395;BME280;49531;-34.520;150.798;2023-03-24T04:35:32;100708.94;;;26.11;60.36
63395;BME280;49531;-34.520;150.798;2023-03-24T04:38:03;100721.84;;;26.11;59.91
63395;BME280;49531;-34.520;150.798;2023-03-24T04:40:36;100773.38;;;26.41;58.69
63395;BME280;49531;-34.520;150.798;2023-03-24T04:43:11;100754.00;;;26.19;58.24
63395;BME280;49531;-34.520;150.798;2023-03-24T04:45:40;100780.38;;;26.34;58.45
63395;BME280;49531;-34.520;150.798;2023-03-24T04:48:09;100779.91;;;26.27;57.92
63395;BME280;49531;-34.520;150.798;2023-03-24T04:50:41;100754.97;;;26.09;57.92
63395;BME280;49531;-34.520;150.798;2023-03-24T04:53:09;100674.44;;;25.59;57.83
63395;BME280;49531;-34.520;150.798;2023-03-24T04:58:35;100764.88;;;26.05;57.69
63395;BME280;49531;-34.520;150.798;2023-03-24T05:01:02;100701.19;;;25.62;58.00
63395;BME280;49531;-34.520;150.798;2023-03-24T05:03:31;100766.59;;;26.01;57.96
63395;BME280;49531;-34.520;150.798;2023-03-24T05:06:03;100737.22;;;25.69;57.87
63395;BME280;49531;-34.520;150.798;2023-03-24T05:08:31;100774.09;;;25.96;58.32
63395;BME280;49531;-34.520;150.798;2023-03-24T05:10:58;100732.72;;;25.78;57.95
63395;BME280;49531;-34.520;150.798;2023-03-24T05:13:26;100757.75;;;25.90;58.06
63395;BME280;49531;-34.520;150.798;2023-03-24T05:15:54;100735.75;;;25.77;58.34
63395;BME280;49531;-34.520;150.798;2023-03-24T05:18:21;100767.56;;;25.91;58.58
63395;BME280;49531;-34.520;150.798;2023-03-24T05:20:49;100774.75;;;25.87;58.26
63395;BME280;49531;-34.520;150.798;2023-03-24T05:23:16;100770.38;;;25.86;58.47
63395;BME280;49531;-34.520;150.798;2023-03-24T05:25:45;100745.22;;;25.66;57.77
63395;BME280;49531;-34.520;150.798;2023-03-24T05:28:12;100684.75;;;25.24;58.00
63395;BME280;49531;-34.520;150.798;2023-03-24T05:30:39;100780.22;;;25.87;57.49
63395;BME280;49531;-34.520;150.798;2023-03-24T05:33:07;100778.78;;;25.71;57.56
63395;BME280;49531;-34.520;150.798;2023-03-24T05:35:34;100770.25;;;25.54;57.82
63395;BME280;49531;-34.520;150.798;2023-03-24T05:38:01;100781.59;;;25.66;57.77
63395;BME280;49531;-34.520;150.798;2023-03-24T05:40:28;100777.25;;;25.60;57.68
63395;BME280;49531;-34.520;150.798;2023-03-24T05:42:55;100614.47;;;24.58;57.93
63395;BME280;49531;-34.520;150.798;2023-03-24T05:45:22;100790.31;;;25.68;57.50
63395;BME280;49531;-34.520;150.798;2023-03-24T05:47:50;100779.19;;;25.59;57.72
63395;BME280;49531;-34.520;150.798;2023-03-24T05:50:17;100800.09;;;25.74;57.78
63395;BME280;49531;-34.520;150.798;2023-03-24T05:52:45;100791.06;;;25.74;57.48
63395;BME280;49531;-34.520;150.798;2023-03-24T05:55:12;100799.00;;;25.75;57.65
63395;BME280;49531;-34.520;150.798;2023-03-24T05:57:41;100789.97;;;25.75;57.24
63395;BME280;49531;-34.520;150.798;2023-03-24T06:00:09;100774.53;;;25.60;56.49
63395;BME280;49531;-34.520;150.798;2023-03-24T06:02:43;100796.03;;;25.72;56.84
63395;BME280;49531;-34.520;150.798;2023-03-24T06:05:11;100752.91;;;25.40;56.93
63395;BME280;49531;-34.520;150.798;2023-03-24T06:07:40;100761.34;;;25.43;57.04
63395;BME280;49531;-34.520;150.798;2023-03-24T06:10:08;100758.38;;;25.40;58.06
63395;BME280;49531;-34.520;150.798;2023-03-24T06:12:37;100790.34;;;25.63;57.88
63395;BME280;49531;-34.520;150.798;2023-03-24T06:15:05;100792.28;;;25.63;57.18
63395;BME280;49531;-34.520;150.798;2023-03-24T06:17:34;100744.06;;;25.24;57.56
63395;BME280;49531;-34.520;150.798;2023-03-24T06:20:04;100781.94;;;25.36;56.82
63395;BME280;49531;-34.520;150.798;2023-03-24T06:22:39;100732.22;;;25.10;57.18
63395;BME280;49531;-34.520;150.798;2023-03-24T06:25:06;100754.91;;;25.34;57.40
63395;BME280;49531;-34.520;150.798;2023-03-24T06:27:34;100747.34;;;25.26;57.18
63395;BME280;49531;-34.520;150.798;2023-03-24T06:30:02;100754.19;;;25.23;57.06
63395;BME280;49531;-34.520;150.798;2023-03-24T06:32:29;100770.72;;;25.37;57.18
63395;BME280;49531;-34.520;150.798;2023-03-24T06:34:56;100730.09;;;25.07;57.07
63395;BME280;49531;-34.520;150.798;2023-03-24T06:37:23;100738.75;;;25.14;57.27
63395;BME280;49531;-34.520;150.798;2023-03-24T06:39:50;100765.94;;;25.24;57.42
63395;BME280;49531;-34.520;150.798;2023-03-24T06:42:17;100751.22;;;25.20;57.70
63395;BME280;49531;-34.520;150.798;2023-03-24T06:44:44;100784.44;;;25.32;57.73
63395;BME280;49531;-34.520;150.798;2023-03-24T06:47:11;100784.78;;;25.25;57.60
63395;BME280;49531;-34.520;150.798;2023-03-24T06:49:39;100788.63;;;25.24;57.58
63395;BME280;49531;-34.520;150.798;2023-03-24T06:52:07;100783.88;;;25.11;57.96
63395;BME280;49531;-34.520;150.798;2023-03-24T06:54:34;100768.69;;;24.95;57.96
63395;BME280;49531;-34.520;150.798;2023-03-24T06:57:01;100796.38;;;25.17;57.70
63395;BME280;49531;-34.520;150.798;2023-03-24T06:59:28;100734.38;;;24.84;57.54
63395;BME280;49531;-34.520;150.798;2023-03-24T07:01:55;100783.63;;;25.08;57.80
63395;BME280;49531;-34.520;150.798;2023-03-24T07:04:22;100768.69;;;25.00;57.21
63395;BME280;49531;-34.520;150.798;2023-03-24T07:06:51;100800.00;;;25.13;57.76
63395;BME280;49531;-34.520;150.798;2023-03-24T07:09:18;100804.34;;;25.14;58.15
63395;BME280;49531;-34.520;150.798;2023-03-24T07:11:45;100809.81;;;25.14;58.03
63395;BME280;49531;-34.520;150.798;2023-03-24T07:14:13;100760.66;;;24.80;58.03
63395;BME280;49531;-34.520;150.798;2023-03-24T07:16:40;100818.13;;;25.04;58.20
63395;BME280;49531;-34.520;150.798;2023-03-24T07:19:07;100740.16;;;24.53;58.30
63395;BME280;49531;-34.520;150.798;2023-03-24T07:21:35;100820.63;;;25.00;58.01
63395;BME280;49531;-34.520;150.798;2023-03-24T07:24:02;100821.66;;;25.04;58.12
63395;BME280;49531;-34.520;150.798;2023-03-24T07:26:29;100826.66;;;24.97;58.30
63395;BME280;49531;-34.520;150.798;2023-03-24T07:28:56;100752.41;;;24.56;58.48
63395;BME280;49531;-34.520;150.798;2023-03-24T07:31:23;100795.56;;;24.88;57.92
63395;BME280;49531;-34.520;150.798;2023-03-24T07:33:50;100764.69;;;24.58;58.18
63395;BME280;49531;-34.520;150.798;2023-03-24T07:36:17;100823.41;;;24.90;58.77
63395;BME280;49531;-34.520;150.798;2023-03-24T07:38:44;100815.72;;;24.92;57.86
63395;BME280;49531;-34.520;150.798;2023-03-24T07:41:11;100825.31;;;24.89;58.17
63395;BME280;49531;-34.520;150.798;2023-03-24T07:43:38;100807.44;;;24.73;58.35
63395;BME280;49531;-34.520;150.798;2023-03-24T07:46:06;100832.81;;;24.79;58.48
63395;BME280;49531;-34.520;150.798;2023-03-24T07:48:33;100834.91;;;24.87;58.37
63395;BME280;49531;-34.520;150.798;2023-03-24T07:51:00;100815.19;;;24.61;58.54
63395;BME280;49531;-34.520;150.798;2023-03-24T07:53:27;100849.22;;;24.79;58.24
63395;BME280;49531;-34.520;150.798;2023-03-24T07:55:54;100847.38;;;24.69;58.42
63395;BME280;49531;-34.520;150.798;2023-03-24T07:58:21;100733.22;;;23.98;58.05
63395;BME280;49531;-34.520;150.798;2023-03-24T08:00:48;100850.94;;;24.65;58.39
63395;BME280;49531;-34.520;150.798;2023-03-24T08:03:15;100846.13;;;24.51;58.45
63395;BME280;49531;-34.520;150.798;2023-03-24T08:05:43;100841.50;;;24.47;58.41
63395;BME280;49531;-34.520;150.798;2023-03-24T08:08:10;100807.53;;;24.24;58.37
63395;BME280;49531;-34.520;150.798;2023-03-24T08:10:37;100836.91;;;24.42;58.60
63395;BME280;49531;-34.520;150.798;2023-03-24T08:13:04;100794.47;;;24.16;58.17
63395;BME280;49531;-34.520;150.798;2023-03-24T08:15:32;100865.22;;;24.56;58.44
63395;BME280;49531;-34.520;150.798;2023-03-24T08:17:59;100871.22;;;24.53;58.49
63395;BME280;49531;-34.520;150.798;2023-03-24T08:20:26;100857.09;;;24.41;58.94
63395;BME280;49531;-34.520;150.798;2023-03-24T08:22:54;100858.81;;;24.37;58.88
63395;BME280;49531;-34.520;150.798;2023-03-24T08:25:24;100877.81;;;24.47;59.17
63395;BME280;49531;-34.520;150.798;2023-03-24T08:27:52;100876.19;;;24.46;59.07
63395;BME280;49531;-34.520;150.798;2023-03-24T08:30:22;100894.94;;;24.63;58.99
63395;BME280;49531;-34.520;150.798;2023-03-24T08:32:52;100898.97;;;24.71;58.75
63395;BME280;49531;-34.520;150.798;2023-03-24T08:35:23;100870.94;;;24.55;58.56
63395;BME280;49531;-34.520;150.798;2023-03-24T08:37:51;100895.66;;;24.79;58.76
63395;BME280;49531;-34.520;150.798;2023-03-24T08:40:21;100876.06;;;24.67;59.10
63395;BME280;49531;-34.520;150.798;2023-03-24T08:42:52;100886.31;;;24.80;58.92
63395;BME280;49531;-34.520;150.798;2023-03-24T08:45:21;100890.19;;;24.79;59.21
63395;BME280;49531;-34.520;150.798;2023-03-24T08:47:50;100898.88;;;24.81;58.87
63395;BME280;49531;-34.520;150.798;2023-03-24T08:50:20;100898.31;;;24.84;59.09
63395;BME280;49531;-34.520;150.798;2023-03-24T08:52:49;100884.19;;;24.77;59.03
63395;BME280;49531;-34.520;150.798;2023-03-24T08:55:17;100905.41;;;24.85;59.04
63395;BME280;49531;-34.520;150.798;2023-03-24T08:57:45;100910.06;;;24.84;59.13
63395;BME280;49531;-34.520;150.798;2023-03-24T09:00:13;100892.38;;;24.77;59.07
63395;BME280;49531;-34.520;150.798;2023-03-24T09:02:43;100889.13;;;24.75;58.85
63395;BME280;49531;-34.520;150.798;2023-03-24T09:05:11;100881.25;;;24.68;58.97
63395;BME280;49531;-34.520;150.798;2023-03-24T09:07:38;100903.31;;;24.77;59.02
63395;BME280;49531;-34.520;150.798;2023-03-24T09:10:06;100920.41;;;24.87;59.24
63395;BME280;49531;-34.520;150.798;2023-03-24T09:12:35;100902.50;;;24.76;59.17
63395;BME280;49531;-34.520;150.798;2023-03-24T09:15:04;100898.69;;;24.72;59.33
63395;BME280;49531;-34.520;150.798;2023-03-24T09:17:33;100929.69;;;24.91;59.14
63395;BME280;49531;-34.520;150.798;2023-03-24T09:20:00;100940.63;;;24.91;59.25
63395;BME280;49531;-34.520;150.798;2023-03-24T09:22:39;100896.84;;;24.63;59.28
63395;BME280;49531;-34.520;150.798;2023-03-24T09:25:07;100949.09;;;24.90;59.57
63395;BME280;49531;-34.520;150.798;2023-03-24T09:27:34;100902.31;;;24.63;59.36
63395;BME280;49531;-34.520;150.798;2023-03-24T09:30:02;100960.56;;;24.97;59.31
63395;BME280;49531;-34.520;150.798;2023-03-24T09:32:29;100966.03;;;24.97;59.28
63395;BME280;49531;-34.520;150.798;2023-03-24T09:34:56;100968.75;;;24.97;58.86
63395;BME280;49531;-34.520;150.798;2023-03-24T09:37:23;100920.59;;;24.67;59.42
63395;BME280;49531;-34.520;150.798;2023-03-24T09:39:50;100940.50;;;24.73;59.61
63395;BME280;49531;-34.520;150.798;2023-03-24T09:42:22;100979.13;;;24.95;59.54
63395;BME280;49531;-34.520;150.798;2023-03-24T09:44:56;100947.59;;;24.74;59.30
63395;BME280;49531;-34.520;150.798;2023-03-24T09:47:30;100938.88;;;24.72;59.26
63395;BME280;49531;-34.520;150.798;2023-03-24T09:50:05;100968.22;;;24.90;59.39
63395;BME280;49531;-34.520;150.798;2023-03-24T09:52:41;100965.50;;;24.90;59.15
63395;BME280;49531;-34.520;150.798;2023-03-24T09:55:15;100982.94;;;24.99;59.15
63395;BME280;49531;-34.520;150.798;2023-03-24T09:57:47;100983.78;;;25.00;59.15
63395;BME280;49531;-34.520;150.798;2023-03-24T10:00:21;100991.72;;;24.96;59.26
63395;BME280;49531;-34.520;150.798;2023-03-24T10:02:50;100993.34;;;24.97;59.27
63395;BME280;49531;-34.520;150.798;2023-03-24T10:05:28;100997.72;;;24.98;59.34
63395;BME280;49531;-34.520;150.798;2023-03-24T10:08:16;100993.63;;;24.96;59.26
63395;BME280;49531;-34.520;150.798;2023-03-24T10:11:04;100994.16;;;24.92;59.28
63395;BME280;49531;-34.520;150.798;2023-03-24T10:16:55;100907.31;;;24.45;59.43
63395;BME280;49531;-34.520;150.798;2023-03-24T10:19:47;100997.72;;;24.98;58.68
63395;BME280;49531;-34.520;150.798;2023-03-24T10:22:42;100953.34;;;24.72;59.07
63395;BME280;49531;-34.520;150.798;2023-03-24T10:25:25;100984.06;;;24.98;59.10
63395;BME280;49531;-34.520;150.798;2023-03-24T10:27:59;100978.63;;;24.88;59.34
63395;BME280;49531;-34.520;150.798;2023-03-24T10:30:34;100924.50;;;24.51;59.22
63395;BME280;49531;-34.520;150.798;2023-03-24T10:33:02;100978.63;;;24.88;59.29
63395;BME280;49531;-34.520;150.798;2023-03-24T10:35:34;100965.53;;;24.85;58.96
63395;BME280;49531;-34.520;150.798;2023-03-24T10:38:15;100945.41;;;24.71;59.38
63395;BME280;49531;-34.520;150.798;2023-03-24T10:40:44;100905.69;;;24.44;58.99
63395;BME280;49531;-34.520;150.798;2023-03-24T10:43:13;100967.16;;;24.86;58.91
63395;BME280;49531;-34.520;150.798;2023-03-24T10:45:46;100990.06;;;24.95;59.10
63395;BME280;49531;-34.520;150.798;2023-03-24T10:48:32;100949.25;;;24.70;59.26
63395;BME280;49531;-34.520;150.798;2023-03-24T10:51:00;100938.91;;;24.62;58.94
63395;BME280;49531;-34.520;150.798;2023-03-24T10:53:28;100928.88;;;24.52;59.01
63395;BME280;49531;-34.520;150.798;2023-03-24T10:55:55;100992.81;;;24.90;59.06
63395;BME280;49531;-34.520;150.798;2023-03-24T10:58:34;100988.47;;;24.84;59.21
63395;BME280;49531;-34.520;150.798;2023-03-24T11:01:19;100981.72;;;24.76;59.01
63395;BME280;49531;-34.520;150.798;2023-03-24T11:03:47;100915.59;;;24.35;58.86
63395;BME280;49531;-34.520;150.798;2023-03-24T11:06:18;100967.31;;;24.66;59.00
63395;BME280;49531;-34.520;150.798;2023-03-24T11:08:46;101008.13;;;24.86;58.79
63395;BME280;49531;-34.520;150.798;2023-03-24T11:11:31;101004.34;;;24.82;58.96
63395;BME280;49531;-34.520;150.798;2023-03-24T11:14:00;101001.31;;;24.83;59.14
63395;BME280;49531;-34.520;150.798;2023-03-24T11:16:30;100954.28;;;24.47;59.13
63395;BME280;49531;-34.520;150.798;2023-03-24T11:19:01;100954.25;;;24.52;59.07
63395;BME280;49531;-34.520;150.798;2023-03-24T11:21:33;101011.97;;;24.85;58.94
63395;BME280;49531;-34.520;150.798;2023-03-24T11:24:07;101001.41;;;24.73;59.05
63395;BME280;49531;-34.520;150.798;2023-03-24T11:26:38;101017.72;;;24.83;59.11
63395;BME280;49531;-34.520;150.798;2023-03-24T11:29:14;101020.72;;;24.82;59.40
63395;BME280;49531;-34.520;150.798;2023-03-24T11:31:42;101022.38;;;24.83;59.11
63395;BME280;49531;-34.520;150.798;2023-03-24T11:34:19;101026.19;;;24.82;59.16
63395;BME280;49531;-34.520;150.798;2023-03-24T11:36:56;101036.31;;;24.81;59.14
63395;BME280;49531;-34.520;150.798;2023-03-24T11:39:28;101019.75;;;24.68;59.55
63395;BME280;49531;-34.520;150.798;2023-03-24T11:42:16;101020.00;;;24.71;59.23
63395;BME280;49531;-34.520;150.798;2023-03-24T11:44:47;101005.53;;;24.66;59.41
63395;BME280;49531;-34.520;150.798;2023-03-24T11:47:29;101031.13;;;24.80;59.57
63395;BME280;49531;-34.520;150.798;2023-03-24T11:50:20;101008.25;;;24.71;59.47
63395;BME280;49531;-34.520;150.798;2023-03-24T11:52:57;100989.50;;;24.49;59.62
63395;BME280;49531;-34.520;150.798;2023-03-24T11:55:34;100997.94;;;24.57;59.51
63395;BME280;49531;-34.520;150.798;2023-03-24T11:58:20;101036.91;;;24.78;59.80
63395;BME280;49531;-34.520;150.798;2023-03-24T12:01:02;101027.88;;;24.78;59.49
63395;BME280;49531;-34.520;150.798;2023-03-24T12:03:56;101027.34;;;24.76;59.60
63395;BME280;49531;-34.520;150.798;2023-03-24T12:06:47;101028.44;;;24.75;59.72
63395;BME280;49531;-34.520;150.798;2023-03-24T12:12:37;101028.44;;;24.75;60.00
63395;BME280;49531;-34.520;150.798;2023-03-24T12:15:36;101023.25;;;24.73;59.77
63395;BME280;49531;-34.520;150.798;2023-03-24T12:18:18;100968.00;;;24.37;60.63
63395;BME280;49531;-34.520;150.798;2023-03-24T12:21:05;101017.53;;;24.70;60.56
63395;BME280;49531;-34.520;150.798;2023-03-24T12:23:57;100987.56;;;24.54;60.38
63395;BME280;49531;-34.520;150.798;2023-03-24T12:26:30;101019.47;;;24.69;60.52
63395;BME280;49531;-34.520;150.798;2023-03-24T12:29:26;100982.69;;;24.46;60.86
63395;BME280;49531;-34.520;150.798;2023-03-24T12:32:09;100974.78;;;24.40;60.66
63395;BME280;49531;-34.520;150.798;2023-03-24T12:35:01;101013.75;;;24.66;61.15
63395;BME280;49531;-34.520;150.798;2023-03-24T12:37:47;100975.59;;;24.45;61.00
63395;BME280;49531;-34.520;150.798;2023-03-24T12:40:37;101006.09;;;24.63;60.65
63395;BME280;49531;-34.520;150.798;2023-03-24T12:43:33;101003.09;;;24.64;60.73
63395;BME280;49531;-34.520;150.798;2023-03-24T12:46:20;100992.50;;;24.52;60.97
63395;BME280;49531;-34.520;150.798;2023-03-24T12:49:19;101005.03;;;24.58;61.17
63395;BME280;49531;-34.520;150.798;2023-03-24T12:52:10;101013.50;;;24.57;61.25
63395;BME280;49531;-34.520;150.798;2023-03-24T12:54:59;100951.94;;;24.25;61.28
63395;BME280;49531;-34.520;150.798;2023-03-24T12:57:36;100968.84;;;24.33;61.19
63395;BME280;49531;-34.520;150.798;2023-03-24T13:00:10;101005.06;;;24.53;61.39
63395;BME280;49531;-34.520;150.798;2023-03-24T13:02:44;100931.78;;;24.11;61.35
63395;BME280;49531;-34.520;150.798;2023-03-24T13:05:17;100957.94;;;24.22;61.58
63395;BME280;49531;-34.520;150.798;2023-03-24T13:07:50;100950.84;;;24.21;61.48
63395;BME280;49531;-34.520;150.798;2023-03-24T13:10:24;100990.09;;;24.41;61.63
63395;BME280;49531;-34.520;150.798;2023-03-24T13:12:59;100960.69;;;24.17;61.54
63395;BME280;49531;-34.520;150.798;2023-03-24T13:15:33;101013.81;;;24.50;61.23
63395;BME280;49531;-34.520;150.798;2023-03-24T13:21:05;100964.22;;;24.23;60.95